sensor_id;sensor_type;location;lat;lon;timestamp;temperature;humidity
4097;DHT22;2062;50.694;7.246;2024-01-30T00:01:35;7.60;56.80
4097;DHT22;2062;50.694;7.246;2024-01-30T00:04:03;7.60;57.20
4097;DHT22;2062;50.694;7.246;2024-01-30T00:06:30;7.60;56.80
4097;DHT22;2062;50.694;7.246;2024-01-30T00:08:57;7.70;56.90
4097;DHT22;2062;50.694;7.246;2024-01-30T00:11:24;7.70;56.90
4097;DHT22;2062;50.694;7.246;2024-01-30T00:13:51;7.80;56.90
4097;DHT22;2062;50.694;7.246;2024-01-30T00:16:21;7.80;56.90
4097;DHT22;2062;50.694;7.246;2024-01-30T00:18:49;7.90;56.90
4097;DHT22;2062;50.694;7.246;2024-01-30T00:21:18;7.90;56.90
4097;DHT22;2062;50.694;7.246;2024-01-30T00:23:44;8.00;57.00
4097;DHT22;2062;50.694;7.246;2024-01-30T00:26:12;8.00;56.90
4097;DHT22;2062;50.694;7.246;2024-01-30T00:28:40;8.00;56.90
4097;DHT22;2062;50.694;7.246;2024-01-30T00:31:07;8.10;57.10
4097;DHT22;2062;50.694;7.246;2024-01-30T00:33:34;8.10;57.00
4097;DHT22;2062;50.694;7.246;2024-01-30T00:36:01;8.20;57.10
4097;DHT22;2062;50.694;7.246;2024-01-30T00:38:29;8.20;57.00
4097;DHT22;2062;50.694;7.246;2024-01-30T00:40:55;8.30;57.30
4097;DHT22;2062;50.694;7.246;2024-01-30T00:43:22;8.30;57.10
4097;DHT22;2062;50.694;7.246;2024-01-30T00:45:50;8.40;57.20
4097;DHT22;2062;50.694;7.246;2024-01-30T00:48:17;8.40;57.10
4097;DHT22;2062;50.694;7.246;2024-01-30T00:50:44;8.40;57.20
4097;DHT22;2062;50.694;7.246;2024-01-30T00:53:11;8.50;57.20
4097;DHT22;2062;50.694;7.246;2024-01-30T00:55:39;8.50;57.30
4097;DHT22;2062;50.694;7.246;2024-01-30T00:58:06;8.50;58.00
4097;DHT22;2062;50.694;7.246;2024-01-30T01:00:32;8.60;57.10
4097;DHT22;2062;50.694;7.246;2024-01-30T01:02:59;8.60;57.30
4097;DHT22;2062;50.694;7.246;2024-01-30T01:05:26;8.60;57.20
4097;DHT22;2062;50.694;7.246;2024-01-30T01:07:52;8.70;57.20
4097;DHT22;2062;50.694;7.246;2024-01-30T01:10:19;8.70;57.10
4097;DHT22;2062;50.694;7.246;2024-01-30T01:12:48;8.70;57.20
4097;DHT22;2062;50.694;7.246;2024-01-30T01:15:15;8.70;57.20
4097;DHT22;2062;50.694;7.246;2024-01-30T01:17:42;8.80;57.10
4097;DHT22;2062;50.694;7.246;2024-01-30T01:20:09;8.80;57.10
4097;DHT22;2062;50.694;7.246;2024-01-30T01:22:37;8.80;57.20
4097;DHT22;2062;50.694;7.246;2024-01-30T01:25:05;8.80;57.10
4097;DHT22;2062;50.694;7.246;2024-01-30T01:27:32;8.90;57.20
4097;DHT22;2062;50.694;7.246;2024-01-30T01:30:01;8.90;57.10
4097;DHT22;2062;50.694;7.246;2024-01-30T01:32:30;8.90;57.20
4097;DHT22;2062;50.694;7.246;2024-01-30T01:34:56;8.90;57.20
4097;DHT22;2062;50.694;7.246;2024-01-30T01:37:23;9.00;57.20
4097;DHT22;2062;50.694;7.246;2024-01-30T01:39:52;9.00;57.20
4097;DHT22;2062;50.694;7.246;2024-01-30T01:42:18;9.00;57.20
4097;DHT22;2062;50.694;7.246;2024-01-30T01:44:45;9.00;57.20
4097;DHT22;2062;50.694;7.246;2024-01-30T01:47:14;9.00;57.10
4097;DHT22;2062;50.694;7.246;2024-01-30T01:49:41;9.10;57.20
4097;DHT22;2062;50.694;7.246;2024-01-30T01:52:09;9.10;57.20
4097;DHT22;2062;50.694;7.246;2024-01-30T01:54:36;9.10;57.20
4097;DHT22;2062;50.694;7.246;2024-01-30T01:57:03;9.10;57.20
4097;DHT22;2062;50.694;7.246;2024-01-30T01:59:30;9.20;57.10
4097;DHT22;2062;50.694;7.246;2024-01-30T02:01:57;9.20;57.10
4097;DHT22;2062;50.694;7.246;2024-01-30T02:04:25;9.10;57.10
4097;DHT22;2062;50.694;7.246;2024-01-30T02:06:52;9.20;57.10
4097;DHT22;2062;50.694;7.246;2024-01-30T02:09:19;9.20;57.10
4097;DHT22;2062;50.694;7.246;2024-01-30T02:11:46;9.20;57.10
4097;DHT22;2062;50.694;7.246;2024-01-30T02:14:12;9.20;57.10
4097;DHT22;2062;50.694;7.246;2024-01-30T02:16:39;9.20;57.10
4097;DHT22;2062;50.694;7.246;2024-01-30T02:19:06;9.20;57.00
4097;DHT22;2062;50.694;7.246;2024-01-30T02:21:34;9.20;57.00
4097;DHT22;2062;50.694;7.246;2024-01-30T02:24:01;9.20;57.00
4097;DHT22;2062;50.694;7.246;2024-01-30T02:26:29;9.20;57.00
4097;DHT22;2062;50.694;7.246;2024-01-30T02:28:56;9.20;57.00
4097;DHT22;2062;50.694;7.246;2024-01-30T02:31:22;9.30;57.20
4097;DHT22;2062;50.694;7.246;2024-01-30T02:33:51;9.30;57.10
4097;DHT22;2062;50.694;7.246;2024-01-30T02:36:18;9.30;57.20
4097;DHT22;2062;50.694;7.246;2024-01-30T02:38:46;9.30;57.10
4097;DHT22;2062;50.694;7.246;2024-01-30T02:41:13;9.30;57.10
4097;DHT22;2062;50.694;7.246;2024-01-30T02:50:09;9.40;57.00
4097;DHT22;2062;50.694;7.246;2024-01-30T02:52:36;9.40;57.00
4097;DHT22;2062;50.694;7.246;2024-01-30T02:55:04;9.50;57.20
4097;DHT22;2062;50.694;7.246;2024-01-30T02:57:31;9.50;57.10
4097;DHT22;2062;50.694;7.246;2024-01-30T02:59:59;9.50;57.10
4097;DHT22;2062;50.694;7.246;2024-01-30T03:02:26;9.50;57.00
4097;DHT22;2062;50.694;7.246;2024-01-30T03:04:53;9.50;57.00
4097;DHT22;2062;50.694;7.246;2024-01-30T03:07:20;9.60;57.10
4097;DHT22;2062;50.694;7.246;2024-01-30T03:09:46;9.60;57.20
4097;DHT22;2062;50.694;7.246;2024-01-30T03:12:15;9.60;57.20
4097;DHT22;2062;50.694;7.246;2024-01-30T03:14:41;9.60;57.10
4097;DHT22;2062;50.694;7.246;2024-01-30T03:17:08;9.60;57.10
4097;DHT22;2062;50.694;7.246;2024-01-30T03:19:35;9.70;57.10
4097;DHT22;2062;50.694;7.246;2024-01-30T03:22:02;9.70;57.10
4097;DHT22;2062;50.694;7.246;2024-01-30T03:24:29;9.70;57.00
4097;DHT22;2062;50.694;7.246;2024-01-30T03:26:56;9.70;57.00
4097;DHT22;2062;50.694;7.246;2024-01-30T03:29:24;9.70;56.90
4097;DHT22;2062;50.694;7.246;2024-01-30T03:31:51;9.70;56.90
4097;DHT22;2062;50.694;7.246;2024-01-30T03:34:17;9.80;56.90
4097;DHT22;2062;50.694;7.246;2024-01-30T03:36:44;9.70;56.80
4097;DHT22;2062;50.694;7.246;2024-01-30T03:39:11;9.70;56.70
4097;DHT22;2062;50.694;7.246;2024-01-30T03:41:37;9.70;56.50
4097;DHT22;2062;50.694;7.246;2024-01-30T03:44:05;9.60;56.30
4097;DHT22;2062;50.694;7.246;2024-01-30T03:46:33;9.60;56.20
4097;DHT22;2062;50.694;7.246;2024-01-30T03:49:00;9.60;56.10
4097;DHT22;2062;50.694;7.246;2024-01-30T03:51:27;9.60;56.20
4097;DHT22;2062;50.694;7.246;2024-01-30T03:53:54;9.50;56.00
4097;DHT22;2062;50.694;7.246;2024-01-30T03:56:20;9.40;55.80
4097;DHT22;2062;50.694;7.246;2024-01-30T03:58:47;9.40;55.90
4097;DHT22;2062;50.694;7.246;2024-01-30T04:01:14;9.30;55.80
4097;DHT22;2062;50.694;7.246;2024-01-30T04:03:42;9.20;55.70
4097;DHT22;2062;50.694;7.246;2024-01-30T04:06:10;9.20;55.80
4097;DHT22;2062;50.694;7.246;2024-01-30T04:08:37;9.10;55.80
4097;DHT22;2062;50.694;7.246;2024-01-30T04:11:04;9.00;55.80
4097;DHT22;2062;50.694;7.246;2024-01-30T04:13:32;9.00;55.90
4097;DHT22;2062;50.694;7.246;2024-01-30T04:15:59;8.90;55.90
4097;DHT22;2062;50.694;7.246;2024-01-30T04:18:26;8.80;55.80
4097;DHT22;2062;50.694;7.246;2024-01-30T04:20:54;8.70;55.80
4097;DHT22;2062;50.694;7.246;2024-01-30T04:23:21;8.70;56.00
4097;DHT22;2062;50.694;7.246;2024-01-30T04:25:48;8.60;55.90
4097;DHT22;2062;50.694;7.246;2024-01-30T04:28:15;8.60;55.90
4097;DHT22;2062;50.694;7.246;2024-01-30T04:30:41;8.50;56.10
4097;DHT22;2062;50.694;7.246;2024-01-30T04:33:08;8.40;56.10
4097;DHT22;2062;50.694;7.246;2024-01-30T04:35:36;8.40;56.10
4097;DHT22;2062;50.694;7.246;2024-01-30T04:38:04;8.30;56.10
4097;DHT22;2062;50.694;7.246;2024-01-30T04:40:30;8.30;56.20
4097;DHT22;2062;50.694;7.246;2024-01-30T04:42:57;8.20;56.20
4097;DHT22;2062;50.694;7.246;2024-01-30T04:45:24;8.20;56.40
4097;DHT22;2062;50.694;7.246;2024-01-30T04:47:51;8.10;56.60
4097;DHT22;2062;50.694;7.246;2024-01-30T04:50:17;8.00;56.50
4097;DHT22;2062;50.694;7.246;2024-01-30T04:52:44;8.00;56.50
4097;DHT22;2062;50.694;7.246;2024-01-30T04:55:13;7.90;56.80
4097;DHT22;2062;50.694;7.246;2024-01-30T04:57:39;7.90;56.90
4097;DHT22;2062;50.694;7.246;2024-01-30T05:00:07;7.90;56.90
4097;DHT22;2062;50.694;7.246;2024-01-30T05:02:34;7.80;56.80
4097;DHT22;2062;50.694;7.246;2024-01-30T05:05:01;7.80;56.90
4097;DHT22;2062;50.694;7.246;2024-01-30T05:07:28;7.70;56.90
4097;DHT22;2062;50.694;7.246;2024-01-30T05:09:55;7.70;57.00
4097;DHT22;2062;50.694;7.246;2024-01-30T05:12:23;7.70;57.00
4097;DHT22;2062;50.694;7.246;2024-01-30T05:14:49;7.60;57.00
4097;DHT22;2062;50.694;7.246;2024-01-30T05:17:16;7.60;56.90
4097;DHT22;2062;50.694;7.246;2024-01-30T05:19:43;7.60;57.00
4097;DHT22;2062;50.694;7.246;2024-01-30T05:22:10;7.60;57.10
4097;DHT22;2062;50.694;7.246;2024-01-30T05:24:40;7.50;57.20
4097;DHT22;2062;50.694;7.246;2024-01-30T05:27:07;7.50;57.20
4097;DHT22;2062;50.694;7.246;2024-01-30T05:29:35;7.40;57.30
4097;DHT22;2062;50.694;7.246;2024-01-30T05:32:02;7.40;57.40
4097;DHT22;2062;50.694;7.246;2024-01-30T05:34:29;7.40;57.40
4097;DHT22;2062;50.694;7.246;2024-01-30T05:36:56;7.40;57.40
4097;DHT22;2062;50.694;7.246;2024-01-30T05:39:23;7.40;57.60
4097;DHT22;2062;50.694;7.246;2024-01-30T05:41:49;7.30;57.50
4097;DHT22;2062;50.694;7.246;2024-01-30T05:44:16;7.30;57.70
4097;DHT22;2062;50.694;7.246;2024-01-30T05:46:44;7.30;57.80
4097;DHT22;2062;50.694;7.246;2024-01-30T05:49:11;7.30;57.80
4097;DHT22;2062;50.694;7.246;2024-01-30T05:51:38;7.20;57.90
4097;DHT22;2062;50.694;7.246;2024-01-30T05:54:04;7.20;57.90
4097;DHT22;2062;50.694;7.246;2024-01-30T05:56:31;7.20;57.90
4097;DHT22;2062;50.694;7.246;2024-01-30T05:58:58;7.20;58.20
4097;DHT22;2062;50.694;7.246;2024-01-30T06:01:24;7.20;58.10
4097;DHT22;2062;50.694;7.246;2024-01-30T06:03:53;7.10;58.20
4097;DHT22;2062;50.694;7.246;2024-01-30T06:06:19;7.10;58.40
4097;DHT22;2062;50.694;7.246;2024-01-30T06:08:46;7.10;58.30
4097;DHT22;2062;50.694;7.246;2024-01-30T06:11:13;7.00;58.20
4097;DHT22;2062;50.694;7.246;2024-01-30T06:13:40;7.00;58.50
4097;DHT22;2062;50.694;7.246;2024-01-30T06:16:09;7.00;58.70
4097;DHT22;2062;50.694;7.246;2024-01-30T06:18:36;7.00;58.60
4097;DHT22;2062;50.694;7.246;2024-01-30T06:21:04;7.00;59.00
4097;DHT22;2062;50.694;7.246;2024-01-30T06:23:31;6.90;59.10
4097;DHT22;2062;50.694;7.246;2024-01-30T06:25:58;6.90;59.20
4097;DHT22;2062;50.694;7.246;2024-01-30T06:28:24;6.90;58.90
4097;DHT22;2062;50.694;7.246;2024-01-30T06:30:51;6.80;59.00
4097;DHT22;2062;50.694;7.246;2024-01-30T06:33:18;6.90;59.00
4097;DHT22;2062;50.694;7.246;2024-01-30T06:35:45;6.80;58.90
4097;DHT22;2062;50.694;7.246;2024-01-30T06:38:13;6.80;59.00
4097;DHT22;2062;50.694;7.246;2024-01-30T06:40:41;6.80;59.10
4097;DHT22;2062;50.694;7.246;2024-01-30T06:43:07;6.80;59.10
4097;DHT22;2062;50.694;7.246;2024-01-30T06:45:35;6.80;59.00
4097;DHT22;2062;50.694;7.246;2024-01-30T06:48:01;6.70;59.10
4097;DHT22;2062;50.694;7.246;2024-01-30T06:50:28;6.70;59.30
4097;DHT22;2062;50.694;7.246;2024-01-30T06:52:55;6.70;59.40
4097;DHT22;2062;50.694;7.246;2024-01-30T06:55:23;6.70;59.50
4097;DHT22;2062;50.694;7.246;2024-01-30T06:57:50;6.70;59.50
4097;DHT22;2062;50.694;7.246;2024-01-30T07:00:17;6.70;59.50
4097;DHT22;2062;50.694;7.246;2024-01-30T07:02:45;6.70;59.60
4097;DHT22;2062;50.694;7.246;2024-01-30T07:05:11;6.70;59.60
4097;DHT22;2062;50.694;7.246;2024-01-30T07:07:38;6.70;59.50
4097;DHT22;2062;50.694;7.246;2024-01-30T07:10:06;6.60;59.50
4097;DHT22;2062;50.694;7.246;2024-01-30T07:12:35;6.60;59.80
4097;DHT22;2062;50.694;7.246;2024-01-30T07:15:02;6.70;59.90
4097;DHT22;2062;50.694;7.246;2024-01-30T07:17:29;6.70;59.90
4097;DHT22;2062;50.694;7.246;2024-01-30T07:19:57;6.70;60.30
4097;DHT22;2062;50.694;7.246;2024-01-30T07:22:24;6.70;60.40
4097;DHT22;2062;50.694;7.246;2024-01-30T07:24:51;6.60;60.20
4097;DHT22;2062;50.694;7.246;2024-01-30T07:27:17;6.70;60.10
4097;DHT22;2062;50.694;7.246;2024-01-30T07:29:45;6.60;59.90
4097;DHT22;2062;50.694;7.246;2024-01-30T07:32:12;6.60;60.00
4097;DHT22;2062;50.694;7.246;2024-01-30T07:34:39;6.60;59.90
4097;DHT22;2062;50.694;7.246;2024-01-30T07:37:06;6.70;60.00
4097;DHT22;2062;50.694;7.246;2024-01-30T07:39:34;6.70;60.90
4097;DHT22;2062;50.694;7.246;2024-01-30T07:42:01;6.70;60.30
4097;DHT22;2062;50.694;7.246;2024-01-30T07:44:28;6.70;60.40
4097;DHT22;2062;50.694;7.246;2024-01-30T07:46:56;6.80;60.20
4097;DHT22;2062;50.694;7.246;2024-01-30T07:49:23;6.80;60.60
4097;DHT22;2062;50.694;7.246;2024-01-30T07:51:50;6.80;60.50
4097;DHT22;2062;50.694;7.246;2024-01-30T07:54:17;6.90;60.90
4097;DHT22;2062;50.694;7.246;2024-01-30T08:03:28;7.10;61.00
4097;DHT22;2062;50.694;7.246;2024-01-30T08:05:55;7.30;61.10
4097;DHT22;2062;50.694;7.246;2024-01-30T08:08:22;7.30;61.00
4097;DHT22;2062;50.694;7.246;2024-01-30T08:10:48;7.40;61.10
4097;DHT22;2062;50.694;7.246;2024-01-30T08:13:15;7.50;61.00
4097;DHT22;2062;50.694;7.246;2024-01-30T08:15:42;7.60;61.30
4097;DHT22;2062;50.694;7.246;2024-01-30T08:18:09;7.70;61.30
4097;DHT22;2062;50.694;7.246;2024-01-30T08:20:37;7.80;61.60
4097;DHT22;2062;50.694;7.246;2024-01-30T08:23:03;7.90;61.40
4097;DHT22;2062;50.694;7.246;2024-01-30T08:25:30;8.00;61.60
4097;DHT22;2062;50.694;7.246;2024-01-30T08:27:57;8.10;61.30
4097;DHT22;2062;50.694;7.246;2024-01-30T08:30:24;8.20;61.30
4097;DHT22;2062;50.694;7.246;2024-01-30T08:32:50;8.30;61.40
4097;DHT22;2062;50.694;7.246;2024-01-30T08:35:17;8.40;61.40
4097;DHT22;2062;50.694;7.246;2024-01-30T08:37:45;8.40;61.30
4097;DHT22;2062;50.694;7.246;2024-01-30T08:40:12;8.50;62.10
4097;DHT22;2062;50.694;7.246;2024-01-30T08:42:39;8.60;61.50
4097;DHT22;2062;50.694;7.246;2024-01-30T08:45:06;8.70;61.60
4097;DHT22;2062;50.694;7.246;2024-01-30T08:47:33;8.70;61.70
4097;DHT22;2062;50.694;7.246;2024-01-30T08:50:00;8.80;61.60
4097;DHT22;2062;50.694;7.246;2024-01-30T08:52:27;8.90;61.50
4097;DHT22;2062;50.694;7.246;2024-01-30T08:54:55;9.00;61.40
4097;DHT22;2062;50.694;7.246;2024-01-30T08:57:22;9.00;61.30
4097;DHT22;2062;50.694;7.246;2024-01-30T08:59:49;9.10;61.30
4097;DHT22;2062;50.694;7.246;2024-01-30T09:02:15;9.10;61.10
4097;DHT22;2062;50.694;7.246;2024-01-30T09:04:43;9.10;61.00
4097;DHT22;2062;50.694;7.246;2024-01-30T09:07:10;9.20;60.90
4097;DHT22;2062;50.694;7.246;2024-01-30T09:09:38;9.20;60.70
4097;DHT22;2062;50.694;7.246;2024-01-30T09:12:08;9.20;60.60
4097;DHT22;2062;50.694;7.246;2024-01-30T09:14:37;9.20;60.60
4097;DHT22;2062;50.694;7.246;2024-01-30T09:17:04;9.20;60.50
4097;DHT22;2062;50.694;7.246;2024-01-30T09:19:31;9.20;60.40
4097;DHT22;2062;50.694;7.246;2024-01-30T09:21:58;9.20;60.40
4097;DHT22;2062;50.694;7.246;2024-01-30T09:24:25;9.20;60.40
4097;DHT22;2062;50.694;7.246;2024-01-30T09:26:52;9.20;60.40
4097;DHT22;2062;50.694;7.246;2024-01-30T09:29:21;9.30;60.70
4097;DHT22;2062;50.694;7.246;2024-01-30T09:31:48;9.30;60.50
4097;DHT22;2062;50.694;7.246;2024-01-30T09:34:15;9.30;60.80
4097;DHT22;2062;50.694;7.246;2024-01-30T09:36:42;9.40;60.80
4097;DHT22;2062;50.694;7.246;2024-01-30T09:39:08;9.40;60.70
4097;DHT22;2062;50.694;7.246;2024-01-30T09:41:46;9.60;60.90
4097;DHT22;2062;50.694;7.246;2024-01-30T09:44:16;9.60;61.00
4097;DHT22;2062;50.694;7.246;2024-01-30T09:46:46;9.70;60.90
4097;DHT22;2062;50.694;7.246;2024-01-30T09:49:13;9.80;60.90
4097;DHT22;2062;50.694;7.246;2024-01-30T09:51:40;9.90;61.20
4097;DHT22;2062;50.694;7.246;2024-01-30T09:54:08;9.90;60.90
4097;DHT22;2062;50.694;7.246;2024-01-30T09:56:36;10.10;61.00
4097;DHT22;2062;50.694;7.246;2024-01-30T09:59:03;10.10;61.00
4097;DHT22;2062;50.694;7.246;2024-01-30T10:01:30;10.30;61.30
4097;DHT22;2062;50.694;7.246;2024-01-30T10:03:59;10.40;61.40
4097;DHT22;2062;50.694;7.246;2024-01-30T10:06:25;10.60;61.40
4097;DHT22;2062;50.694;7.246;2024-01-30T10:08:53;10.80;61.30
4097;DHT22;2062;50.694;7.246;2024-01-30T10:11:19;10.90;61.60
4097;DHT22;2062;50.694;7.246;2024-01-30T10:13:46;11.10;61.60
4097;DHT22;2062;50.694;7.246;2024-01-30T10:16:14;11.30;61.50
4097;DHT22;2062;50.694;7.246;2024-01-30T10:18:42;11.40;61.20
4097;DHT22;2062;50.694;7.246;2024-01-30T10:21:10;11.60;61.10
4097;DHT22;2062;50.694;7.246;2024-01-30T10:23:37;11.70;60.90
4097;DHT22;2062;50.694;7.246;2024-01-30T10:26:04;11.70;60.70
4097;DHT22;2062;50.694;7.246;2024-01-30T10:28:32;11.90;60.60
4097;DHT22;2062;50.694;7.246;2024-01-30T10:30:59;11.90;60.40
4097;DHT22;2062;50.694;7.246;2024-01-30T10:33:26;12.00;60.30
4097;DHT22;2062;50.694;7.246;2024-01-30T10:35:55;12.10;60.40
4097;DHT22;2062;50.694;7.246;2024-01-30T10:38:28;12.20;60.20
4097;DHT22;2062;50.694;7.246;2024-01-30T10:40:56;12.20;60.10
4097;DHT22;2062;50.694;7.246;2024-01-30T10:43:25;12.40;60.10
4097;DHT22;2062;50.694;7.246;2024-01-30T10:45:57;12.50;60.00
4097;DHT22;2062;50.694;7.246;2024-01-30T10:48:30;12.50;59.90
4097;DHT22;2062;50.694;7.246;2024-01-30T10:50:59;12.50;59.60
4097;DHT22;2062;50.694;7.246;2024-01-30T10:53:30;12.60;59.40
4097;DHT22;2062;50.694;7.246;2024-01-30T10:55:58;12.70;59.40
4097;DHT22;2062;50.694;7.246;2024-01-30T10:58:26;12.70;59.10
4097;DHT22;2062;50.694;7.246;2024-01-30T11:00:54;12.70;58.80
4097;DHT22;2062;50.694;7.246;2024-01-30T11:03:21;12.80;58.60
4097;DHT22;2062;50.694;7.246;2024-01-30T11:05:49;12.70;58.30
4097;DHT22;2062;50.694;7.246;2024-01-30T11:08:23;12.80;58.20
4097;DHT22;2062;50.694;7.246;2024-01-30T11:10:57;12.80;58.00
4097;DHT22;2062;50.694;7.246;2024-01-30T11:13:27;12.80;57.60
4097;DHT22;2062;50.694;7.246;2024-01-30T11:15:54;12.70;57.40
4097;DHT22;2062;50.694;7.246;2024-01-30T11:18:24;12.70;57.50
4097;DHT22;2062;50.694;7.246;2024-01-30T11:20:51;12.70;57.30
4097;DHT22;2062;50.694;7.246;2024-01-30T11:23:18;12.70;57.20
4097;DHT22;2062;50.694;7.246;2024-01-30T11:25:44;12.70;57.20
4097;DHT22;2062;50.694;7.246;2024-01-30T11:28:15;12.60;56.90
4097;DHT22;2062;50.694;7.246;2024-01-30T11:30:42;12.60;56.90
4097;DHT22;2062;50.694;7.246;2024-01-30T11:33:10;12.60;56.80
4097;DHT22;2062;50.694;7.246;2024-01-30T11:35:38;12.50;56.60
4097;DHT22;2062;50.694;7.246;2024-01-30T11:38:06;12.50;56.70
4097;DHT22;2062;50.694;7.246;2024-01-30T11:40:34;12.50;56.80
4097;DHT22;2062;50.694;7.246;2024-01-30T11:43:03;12.50;57.30
4097;DHT22;2062;50.694;7.246;2024-01-30T11:45:32;12.50;56.70
4097;DHT22;2062;50.694;7.246;2024-01-30T11:47:59;12.40;56.60
4097;DHT22;2062;50.694;7.246;2024-01-30T11:50:29;12.40;56.60
4097;DHT22;2062;50.694;7.246;2024-01-30T11:52:56;12.30;56.40
4097;DHT22;2062;50.694;7.246;2024-01-30T11:55:23;12.40;56.50
4097;DHT22;2062;50.694;7.246;2024-01-30T11:57:50;12.30;56.50
4097;DHT22;2062;50.694;7.246;2024-01-30T12:00:18;12.30;56.50
4097;DHT22;2062;50.694;7.246;2024-01-30T12:02:50;12.30;56.50
4097;DHT22;2062;50.694;7.246;2024-01-30T12:05:21;12.30;56.50
4097;DHT22;2062;50.694;7.246;2024-01-30T12:07:48;12.30;56.60
4097;DHT22;2062;50.694;7.246;2024-01-30T12:10:15;12.20;56.40
4097;DHT22;2062;50.694;7.246;2024-01-30T12:12:45;12.20;56.50
4097;DHT22;2062;50.694;7.246;2024-01-30T12:15:13;12.20;56.50
4097;DHT22;2062;50.694;7.246;2024-01-30T12:17:40;12.20;56.60
4097;DHT22;2062;50.694;7.246;2024-01-30T12:20:10;12.30;56.70
4097;DHT22;2062;50.694;7.246;2024-01-30T12:22:39;12.20;56.60
4097;DHT22;2062;50.694;7.246;2024-01-30T12:25:08;12.30;56.70
4097;DHT22;2062;50.694;7.246;2024-01-30T12:27:35;12.30;56.80
4097;DHT22;2062;50.694;7.246;2024-01-30T12:30:05;12.30;56.70
4097;DHT22;2062;50.694;7.246;2024-01-30T12:32:34;12.30;56.90
4097;DHT22;2062;50.694;7.246;2024-01-30T12:35:01;12.30;56.80
4097;DHT22;2062;50.694;7.246;2024-01-30T12:37:29;12.40;56.80
4097;DHT22;2062;50.694;7.246;2024-01-30T12:39:56;12.40;56.90
4097;DHT22;2062;50.694;7.246;2024-01-30T12:42:23;12.50;57.00
4097;DHT22;2062;50.694;7.246;2024-01-30T12:44:50;12.50;56.90
4097;DHT22;2062;50.694;7.246;2024-01-30T12:47:16;12.50;56.90
4097;DHT22;2062;50.694;7.246;2024-01-30T12:49:43;12.50;56.80
4097;DHT22;2062;50.694;7.246;2024-01-30T12:52:10;12.50;56.80
4097;DHT22;2062;50.694;7.246;2024-01-30T12:54:39;12.60;56.80
4097;DHT22;2062;50.694;7.246;2024-01-30T12:57:06;12.60;56.60
4097;DHT22;2062;50.694;7.246;2024-01-30T12:59:32;12.60;56.60
4097;DHT22;2062;50.694;7.246;2024-01-30T13:02:00;12.60;56.40
4097;DHT22;2062;50.694;7.246;2024-01-30T13:04:28;12.70;56.30
4097;DHT22;2062;50.694;7.246;2024-01-30T13:06:55;12.70;56.30
4097;DHT22;2062;50.694;7.246;2024-01-30T13:09:23;12.70;56.30
4097;DHT22;2062;50.694;7.246;2024-01-30T13:11:51;12.60;56.00
4097;DHT22;2062;50.694;7.246;2024-01-30T13:14:18;12.70;56.00
4097;DHT22;2062;50.694;7.246;2024-01-30T13:16:45;12.70;56.00
4097;DHT22;2062;50.694;7.246;2024-01-30T13:19:12;12.70;55.80
4097;DHT22;2062;50.694;7.246;2024-01-30T13:21:39;12.70;55.70
4097;DHT22;2062;50.694;7.246;2024-01-30T13:24:06;12.70;55.90
4097;DHT22;2062;50.694;7.246;2024-01-30T13:26:33;12.70;55.90
4097;DHT22;2062;50.694;7.246;2024-01-30T13:29:01;12.70;56.00
4097;DHT22;2062;50.694;7.246;2024-01-30T13:31:29;12.70;55.90
4097;DHT22;2062;50.694;7.246;2024-01-30T13:33:55;12.70;55.80
4097;DHT22;2062;50.694;7.246;2024-01-30T13:36:22;12.70;55.80
4097;DHT22;2062;50.694;7.246;2024-01-30T13:38:49;12.70;55.80
4097;DHT22;2062;50.694;7.246;2024-01-30T13:41:16;12.80;55.70
4097;DHT22;2062;50.694;7.246;2024-01-30T13:43:43;12.60;55.30
4097;DHT22;2062;50.694;7.246;2024-01-30T13:46:11;12.70;55.70
4097;DHT22;2062;50.694;7.246;2024-01-30T13:48:38;12.70;55.70
4097;DHT22;2062;50.694;7.246;2024-01-30T13:51:05;12.70;55.50
4097;DHT22;2062;50.694;7.246;2024-01-30T13:53:32;12.60;55.50
4097;DHT22;2062;50.694;7.246;2024-01-30T13:55:59;12.60;55.50
4097;DHT22;2062;50.694;7.246;2024-01-30T13:58:26;12.60;55.60
4097;DHT22;2062;50.694;7.246;2024-01-30T14:00:53;12.60;55.50
4097;DHT22;2062;50.694;7.246;2024-01-30T14:03:21;12.60;55.50
4097;DHT22;2062;50.694;7.246;2024-01-30T14:05:48;12.60;55.50
4097;DHT22;2062;50.694;7.246;2024-01-30T14:08:15;12.60;55.30
4097;DHT22;2062;50.694;7.246;2024-01-30T14:10:42;12.60;55.30
4097;DHT22;2062;50.694;7.246;2024-01-30T14:13:09;12.60;55.40
4097;DHT22;2062;50.694;7.246;2024-01-30T14:15:37;12.60;55.50
4097;DHT22;2062;50.694;7.246;2024-01-30T14:18:04;12.60;55.50
4097;DHT22;2062;50.694;7.246;2024-01-30T14:20:35;12.60;55.40
4097;DHT22;2062;50.694;7.246;2024-01-30T14:23:01;12.60;55.40
4097;DHT22;2062;50.694;7.246;2024-01-30T14:25:28;12.60;55.40
4097;DHT22;2062;50.694;7.246;2024-01-30T14:27:55;12.60;55.30
4097;DHT22;2062;50.694;7.246;2024-01-30T14:30:22;12.50;55.30
4097;DHT22;2062;50.694;7.246;2024-01-30T14:32:49;12.60;55.30
4097;DHT22;2062;50.694;7.246;2024-01-30T14:35:16;12.60;55.30
4097;DHT22;2062;50.694;7.246;2024-01-30T14:37:44;12.50;55.30
4097;DHT22;2062;50.694;7.246;2024-01-30T14:40:11;12.50;55.30
4097;DHT22;2062;50.694;7.246;2024-01-30T14:42:38;12.50;55.40
4097;DHT22;2062;50.694;7.246;2024-01-30T14:45:06;12.50;55.30
4097;DHT22;2062;50.694;7.246;2024-01-30T14:47:33;12.50;55.30
4097;DHT22;2062;50.694;7.246;2024-01-30T14:50:00;12.50;55.30
4097;DHT22;2062;50.694;7.246;2024-01-30T14:52:28;12.40;55.30
4097;DHT22;2062;50.694;7.246;2024-01-30T14:54:56;12.40;55.30
4097;DHT22;2062;50.694;7.246;2024-01-30T14:57:23;12.50;55.30
4097;DHT22;2062;50.694;7.246;2024-01-30T14:59:50;12.40;55.30
4097;DHT22;2062;50.694;7.246;2024-01-30T15:02:17;12.40;55.30
4097;DHT22;2062;50.694;7.246;2024-01-30T15:04:44;12.40;55.30
4097;DHT22;2062;50.694;7.246;2024-01-30T15:07:11;12.40;55.30
4097;DHT22;2062;50.694;7.246;2024-01-30T15:09:37;12.40;55.30
4097;DHT22;2062;50.694;7.246;2024-01-30T15:12:06;12.40;55.30
4097;DHT22;2062;50.694;7.246;2024-01-30T15:14:33;12.30;55.30
4097;DHT22;2062;50.694;7.246;2024-01-30T15:16:59;12.30;55.30
4097;DHT22;2062;50.694;7.246;2024-01-30T15:19:27;12.30;55.40
4097;DHT22;2062;50.694;7.246;2024-01-30T15:21:53;12.30;55.40
4097;DHT22;2062;50.694;7.246;2024-01-30T15:24:20;12.30;55.40
4097;DHT22;2062;50.694;7.246;2024-01-30T15:26:50;12.30;55.50
4097;DHT22;2062;50.694;7.246;2024-01-30T15:29:18;12.30;55.40
4097;DHT22;2062;50.694;7.246;2024-01-30T15:31:46;12.30;55.50
4097;DHT22;2062;50.694;7.246;2024-01-30T15:34:13;12.20;55.40
4097;DHT22;2062;50.694;7.246;2024-01-30T15:36:40;12.20;55.50
4097;DHT22;2062;50.694;7.246;2024-01-30T15:39:06;12.20;55.40
4097;DHT22;2062;50.694;7.246;2024-01-30T15:41:35;12.10;55.50
4097;DHT22;2062;50.694;7.246;2024-01-30T15:44:02;12.20;55.50
4097;DHT22;2062;50.694;7.246;2024-01-30T15:46:30;12.10;55.60
4097;DHT22;2062;50.694;7.246;2024-01-30T15:48:57;12.10;55.50
4097;DHT22;2062;50.694;7.246;2024-01-30T15:51:24;12.10;55.50
4097;DHT22;2062;50.694;7.246;2024-01-30T15:53:51;12.10;55.60
4097;DHT22;2062;50.694;7.246;2024-01-30T15:56:18;12.10;55.60
4097;DHT22;2062;50.694;7.246;2024-01-30T15:58:44;12.10;55.60
4097;DHT22;2062;50.694;7.246;2024-01-30T16:01:14;12.00;55.60
4097;DHT22;2062;50.694;7.246;2024-01-30T16:03:43;12.00;55.60
4097;DHT22;2062;50.694;7.246;2024-01-30T16:06:11;11.90;55.60
4097;DHT22;2062;50.694;7.246;2024-01-30T16:08:37;12.00;55.70
4097;DHT22;2062;50.694;7.246;2024-01-30T16:11:04;12.00;55.70
4097;DHT22;2062;50.694;7.246;2024-01-30T16:13:31;11.90;55.80
4097;DHT22;2062;50.694;7.246;2024-01-30T16:15:58;11.90;55.80
4097;DHT22;2062;50.694;7.246;2024-01-30T16:18:23;11.90;55.80
4097;DHT22;2062;50.694;7.246;2024-01-30T16:20:53;11.80;55.80
4097;DHT22;2062;50.694;7.246;2024-01-30T16:23:20;11.80;55.80
4097;DHT22;2062;50.694;7.246;2024-01-30T16:25:46;11.80;55.80